sensor_id;sensor_type;location;lat;lon;timestamp;pressure;altitude;pressure_sealevel;temperature;humidity
21742;BME280;11033;47.490;11.116;2023-12-20T00:01:03;93112.16;;;3.44;68.83
21742;BME280;11033;47.490;11.116;2023-12-20T00:03:28;93115.25;;;3.53;68.32
21742;BME280;11033;47.490;11.116;2023-12-20T00:05:53;93107.22;;;3.39;69.92
21742;BME280;11033;47.490;11.116;2023-12-20T00:08:19;93112.16;;;3.44;68.89
21742;BME280;11033;47.490;11.116;2023-12-20T00:10:44;93103.94;;;3.46;68.16
21742;BME280;11033;47.490;11.116;2023-12-20T00:13:10;93102.03;;;3.42;69.87
21742;BME280;11033;47.490;11.116;2023-12-20T00:15:35;93112.91;;;3.45;70.05
21742;BME280;11033;47.490;11.116;2023-12-20T00:18:00;93114.72;;;3.37;69.92
21742;BME280;11033;47.490;11.116;2023-12-20T00:20:26;93103.88;;;3.42;69.22
21742;BME280;11033;47.490;11.116;2023-12-20T00:22:52;93101.19;;;3.35;69.14
21742;BME280;11033;47.490;11.116;2023-12-20T00:25:17;93101.59;;;3.37;68.47
21742;BME280;11033;47.490;11.116;2023-12-20T00:27:43;93101.91;;;3.32;69.22
21742;BME280;11033;47.490;11.116;2023-12-20T00:30:08;93097.38;;;3.29;68.93
21742;BME280;11033;47.490;11.116;2023-12-20T00:32:35;93079.03;;;3.29;69.18
21742;BME280;11033;47.490;11.116;2023-12-20T00:35:00;93080.47;;;3.26;70.24
21742;BME280;11033;47.490;11.116;2023-12-20T00:37:26;93072.19;;;3.21;69.90
21742;BME280;11033;47.490;11.116;2023-12-20T00:39:51;93073.72;;;3.22;70.28
21742;BME280;11033;47.490;11.116;2023-12-20T00:42:16;93075.91;;;3.20;70.03
21742;BME280;11033;47.490;11.116;2023-12-20T00:44:42;93071.06;;;3.18;69.45
21742;BME280;11033;47.490;11.116;2023-12-20T00:47:07;93066.16;;;3.17;69.80
21742;BME280;11033;47.490;11.116;2023-12-20T00:49:32;93061.63;;;3.14;69.16
21742;BME280;11033;47.490;11.116;2023-12-20T00:51:57;93059.72;;;3.11;69.37
21742;BME280;11033;47.490;11.116;2023-12-20T00:54:23;93063.00;;;3.04;69.79
21742;BME280;11033;47.490;11.116;2023-12-20T00:56:48;93049.53;;;3.02;69.84
21742;BME280;11033;47.490;11.116;2023-12-20T00:59:13;93045.75;;;3.00;70.34
21742;BME280;11033;47.490;11.116;2023-12-20T01:01:39;93032.25;;;2.98;69.72
21742;BME280;11033;47.490;11.116;2023-12-20T01:04:05;93022.16;;;3.00;70.25
21742;BME280;11033;47.490;11.116;2023-12-20T01:06:30;93021.41;;;2.99;69.84
21742;BME280;11033;47.490;11.116;2023-12-20T01:08:55;93023.91;;;2.88;71.08
21742;BME280;11033;47.490;11.116;2023-12-20T01:11:21;93022.47;;;2.95;69.73
21742;BME280;11033;47.490;11.116;2023-12-20T01:13:47;93016.28;;;2.76;72.15
21742;BME280;11033;47.490;11.116;2023-12-20T01:16:12;93011.13;;;2.83;71.16
21742;BME280;11033;47.490;11.116;2023-12-20T01:18:37;93004.78;;;2.84;70.07
21742;BME280;11033;47.490;11.116;2023-12-20T01:21:04;93004.41;;;2.86;70.27
21742;BME280;11033;47.490;11.116;2023-12-20T01:23:30;92988.34;;;2.87;70.04
21742;BME280;11033;47.490;11.116;2023-12-20T01:25:55;92983.94;;;2.62;73.19
21742;BME280;11033;47.490;11.116;2023-12-20T01:28:20;92977.00;;;2.76;71.82
21742;BME280;11033;47.490;11.116;2023-12-20T01:30:46;92984.50;;;2.81;71.36
21742;BME280;11033;47.490;11.116;2023-12-20T01:33:11;92987.13;;;2.81;70.95
21742;BME280;11033;47.490;11.116;2023-12-20T01:35:37;92987.59;;;2.57;73.60
21742;BME280;11033;47.490;11.116;2023-12-20T01:38:02;92993.81;;;2.75;71.38
21742;BME280;11033;47.490;11.116;2023-12-20T01:40:27;92989.31;;;2.76;71.60
21742;BME280;11033;47.490;11.116;2023-12-20T01:43:06;92981.44;;;2.72;71.78
21742;BME280;11033;47.490;11.116;2023-12-20T01:45:32;92978.91;;;2.79;71.28
21742;BME280;11033;47.490;11.116;2023-12-20T01:47:58;92972.94;;;2.82;70.96
21742;BME280;11033;47.490;11.116;2023-12-20T01:50:24;92965.06;;;2.82;70.87
21742;BME280;11033;47.490;11.116;2023-12-20T01:52:50;92958.28;;;2.78;72.01
21742;BME280;11033;47.490;11.116;2023-12-20T01:55:18;92959.03;;;2.78;71.60
21742;BME280;11033;47.490;11.116;2023-12-20T01:57:44;92954.97;;;2.81;71.69
21742;BME280;11033;47.490;11.116;2023-12-20T02:00:11;92963.56;;;2.81;71.16
21742;BME280;11033;47.490;11.116;2023-12-20T02:02:39;92966.97;;;2.85;70.46
21742;BME280;11033;47.490;11.116;2023-12-20T02:05:08;92955.69;;;2.81;71.61
21742;BME280;11033;47.490;11.116;2023-12-20T02:07:34;92957.94;;;2.79;72.01
21742;BME280;11033;47.490;11.116;2023-12-20T02:10:00;92963.47;;;2.74;73.61
21742;BME280;11033;47.490;11.116;2023-12-20T02:12:26;92963.97;;;2.83;71.62
21742;BME280;11033;47.490;11.116;2023-12-20T02:14:51;92961.69;;;2.82;73.71
21742;BME280;11033;47.490;11.116;2023-12-20T02:17:16;92976.28;;;2.79;73.70
21742;BME280;11033;47.490;11.116;2023-12-20T02:19:43;92982.69;;;2.85;73.12
21742;BME280;11033;47.490;11.116;2023-12-20T02:22:11;92972.44;;;2.70;75.17
21742;BME280;11033;47.490;11.116;2023-12-20T02:24:37;92960.63;;;2.86;73.01
21742;BME280;11033;47.490;11.116;2023-12-20T02:27:03;92962.53;;;2.89;73.92
21742;BME280;11033;47.490;11.116;2023-12-20T02:29:30;92959.56;;;2.91;73.24
21742;BME280;11033;47.490;11.116;2023-12-20T02:31:56;92978.28;;;2.93;73.53
21742;BME280;11033;47.490;11.116;2023-12-20T02:34:21;92968.25;;;2.99;72.39
21742;BME280;11033;47.490;11.116;2023-12-20T02:36:46;92973.84;;;2.97;73.25
21742;BME280;11033;47.490;11.116;2023-12-20T02:39:11;92986.97;;;3.01;72.57
21742;BME280;11033;47.490;11.116;2023-12-20T02:41:37;92972.44;;;3.03;72.61
21742;BME280;11033;47.490;11.116;2023-12-20T02:44:03;92964.16;;;3.01;72.63
21742;BME280;11033;47.490;11.116;2023-12-20T02:46:28;92963.00;;;2.99;72.86
21742;BME280;11033;47.490;11.116;2023-12-20T02:48:53;92949.09;;;2.91;73.13
21742;BME280;11033;47.490;11.116;2023-12-20T02:51:19;92964.56;;;3.03;73.06
21742;BME280;11033;47.490;11.116;2023-12-20T02:53:44;92966.50;;;3.10;72.58
21742;BME280;11033;47.490;11.116;2023-12-20T02:56:09;92964.94;;;3.05;72.14
21742;BME280;11033;47.490;11.116;2023-12-20T02:58:35;92952.56;;;3.02;71.78
21742;BME280;11033;47.490;11.116;2023-12-20T03:01:00;92960.81;;;3.04;71.57
21742;BME280;11033;47.490;11.116;2023-12-20T03:03:25;92960.09;;;3.04;73.09
21742;BME280;11033;47.490;11.116;2023-12-20T03:05:51;92970.47;;;2.97;73.52
21742;BME280;11033;47.490;11.116;2023-12-20T03:08:17;92984.16;;;2.83;74.50
21742;BME280;11033;47.490;11.116;2023-12-20T03:10:42;92990.25;;;2.90;73.67
21742;BME280;11033;47.490;11.116;2023-12-20T03:13:07;92985.88;;;3.02;72.19
21742;BME280;11033;47.490;11.116;2023-12-20T03:15:32;92990.00;;;3.03;72.29
21742;BME280;11033;47.490;11.116;2023-12-20T03:17:58;92985.88;;;3.02;73.11
21742;BME280;11033;47.490;11.116;2023-12-20T03:20:24;92983.56;;;2.97;74.10
21742;BME280;11033;47.490;11.116;2023-12-20T03:22:51;92996.31;;;2.98;73.71
21742;BME280;11033;47.490;11.116;2023-12-20T03:25:16;92991.91;;;3.06;72.17
21742;BME280;11033;47.490;11.116;2023-12-20T03:27:42;93003.19;;;3.10;72.00
21742;BME280;11033;47.490;11.116;2023-12-20T03:30:07;93002.81;;;3.11;71.48
21742;BME280;11033;47.490;11.116;2023-12-20T03:32:33;92995.31;;;3.10;71.73
21742;BME280;11033;47.490;11.116;2023-12-20T03:34:58;92986.75;;;3.13;71.31
21742;BME280;11033;47.490;11.116;2023-12-20T03:37:23;92975.88;;;3.11;72.11
21742;BME280;11033;47.490;11.116;2023-12-20T03:39:49;92972.50;;;3.10;72.71
21742;BME280;11033;47.490;11.116;2023-12-20T03:42:14;92986.31;;;3.07;73.65
21742;BME280;11033;47.490;11.116;2023-12-20T03:44:39;92971.75;;;3.10;72.08
21742;BME280;11033;47.490;11.116;2023-12-20T03:47:07;92960.13;;;3.07;73.56
21742;BME280;11033;47.490;11.116;2023-12-20T03:49:32;92964.97;;;3.09;73.77
21742;BME280;11033;47.490;11.116;2023-12-20T03:51:58;92963.41;;;3.01;74.28
21742;BME280;11033;47.490;11.116;2023-12-20T03:54:23;92967.19;;;3.03;73.14
21742;BME280;11033;47.490;11.116;2023-12-20T03:56:49;92961.56;;;3.05;72.86
21742;BME280;11033;47.490;11.116;2023-12-20T03:59:14;92961.59;;;3.08;72.94
21742;BME280;11033;47.490;11.116;2023-12-20T04:01:43;92959.97;;;2.97;73.48
21742;BME280;11033;47.490;11.116;2023-12-20T04:04:10;92953.38;;;3.06;73.32
21742;BME280;11033;47.490;11.116;2023-12-20T04:06:35;92956.34;;;3.08;73.25
21742;BME280;11033;47.490;11.116;2023-12-20T04:09:01;92950.75;;;3.06;72.89
21742;BME280;11033;47.490;11.116;2023-12-20T04:11:26;92964.91;;;3.02;72.96
21742;BME280;11033;47.490;11.116;2023-12-20T04:13:51;92958.19;;;3.04;72.50
21742;BME280;11033;47.490;11.116;2023-12-20T04:16:16;92955.25;;;3.09;72.75
21742;BME280;11033;47.490;11.116;2023-12-20T04:18:42;92957.53;;;3.11;72.76
21742;BME280;11033;47.490;11.116;2023-12-20T04:21:07;92956.00;;;3.10;72.80
21742;BME280;11033;47.490;11.116;2023-12-20T04:23:32;92952.25;;;3.07;73.27
21742;BME280;11033;47.490;11.116;2023-12-20T04:25:58;92949.63;;;3.07;72.92
21742;BME280;11033;47.490;11.116;2023-12-20T04:28:23;92955.19;;;3.02;74.71
21742;BME280;11033;47.490;11.116;2023-12-20T04:30:48;92967.19;;;3.03;73.77
21742;BME280;11033;47.490;11.116;2023-12-20T04:33:14;92969.44;;;3.05;73.26
21742;BME280;11033;47.490;11.116;2023-12-20T04:35:39;92967.97;;;3.07;73.16
21742;BME280;11033;47.490;11.116;2023-12-20T04:38:06;92968.72;;;3.08;72.41
21742;BME280;11033;47.490;11.116;2023-12-20T04:40:31;92977.69;;;3.07;72.80
21742;BME280;11033;47.490;11.116;2023-12-20T04:42:57;92978.50;;;3.11;72.89
21742;BME280;11033;47.490;11.116;2023-12-20T04:45:22;92987.44;;;3.06;74.62
21742;BME280;11033;47.490;11.116;2023-12-20T04:47:49;92979.22;;;3.11;73.48
21742;BME280;11033;47.490;11.116;2023-12-20T04:50:15;92978.50;;;3.11;73.79
21742;BME280;11033;47.490;11.116;2023-12-20T04:52:40;92976.97;;;3.10;73.33
21742;BME280;11033;47.490;11.116;2023-12-20T04:55:06;92982.19;;;3.06;73.96
21742;BME280;11033;47.490;11.116;2023-12-20T04:57:31;92992.25;;;3.04;74.32
21742;BME280;11033;47.490;11.116;2023-12-20T04:59:57;92998.59;;;3.00;74.79
21742;BME280;11033;47.490;11.116;2023-12-20T05:02:22;92997.94;;;3.10;73.35
21742;BME280;11033;47.490;11.116;2023-12-20T05:04:47;93011.34;;;3.05;74.46
21742;BME280;11033;47.490;11.116;2023-12-20T05:07:12;93004.19;;;2.98;74.21
21742;BME280;11033;47.490;11.116;2023-12-20T05:09:38;93023.25;;;2.95;74.32
21742;BME280;11033;47.490;11.116;2023-12-20T05:12:03;93016.13;;;2.96;75.13
21742;BME280;11033;47.490;11.116;2023-12-20T05:14:28;93025.59;;;3.04;74.65
21742;BME280;11033;47.490;11.116;2023-12-20T05:16:54;93031.34;;;2.86;75.51
21742;BME280;11033;47.490;11.116;2023-12-20T05:19:19;93016.56;;;3.01;73.79
21742;BME280;11033;47.490;11.116;2023-12-20T05:21:44;93000.84;;;3.01;73.74
21742;BME280;11033;47.490;11.116;2023-12-20T05:24:10;92990.72;;;3.00;74.64
21742;BME280;11033;47.490;11.116;2023-12-20T05:26:35;92961.53;;;3.01;74.31
21742;BME280;11033;47.490;11.116;2023-12-20T05:29:00;92942.09;;;3.02;74.88
21742;BME280;11033;47.490;11.116;2023-12-20T05:31:25;92945.09;;;3.04;74.23
21742;BME280;11033;47.490;11.116;2023-12-20T05:33:51;92934.16;;;2.95;75.91
21742;BME280;11033;47.490;11.116;2023-12-20T05:36:16;92934.44;;;2.86;75.78
21742;BME280;11033;47.490;11.116;2023-12-20T05:38:41;92937.50;;;2.92;75.44
21742;BME280;11033;47.490;11.116;2023-12-20T05:41:06;92926.72;;;3.01;74.32
21742;BME280;11033;47.490;11.116;2023-12-20T05:43:32;92937.53;;;2.96;74.81
21742;BME280;11033;47.490;11.116;2023-12-20T05:45:58;92938.28;;;2.96;74.42
21742;BME280;11033;47.490;11.116;2023-12-20T05:48:23;92946.88;;;2.97;74.16
21742;BME280;11033;47.490;11.116;2023-12-20T05:50:48;92951.06;;;3.01;74.64
21742;BME280;11033;47.490;11.116;2023-12-20T05:53:14;92965.72;;;3.06;73.74
21742;BME280;11033;47.490;11.116;2023-12-20T05:55:39;92969.44;;;3.05;74.26
21742;BME280;11033;47.490;11.116;2023-12-20T05:58:05;92974.66;;;3.05;74.22
21742;BME280;11033;47.490;11.116;2023-12-20T06:00:30;92967.25;;;3.10;73.55
21742;BME280;11033;47.490;11.116;2023-12-20T06:02:55;92978.41;;;3.04;75.29
21742;BME280;11033;47.490;11.116;2023-12-20T06:05:21;92964.97;;;3.09;74.04
21742;BME280;11033;47.490;11.116;2023-12-20T06:07:46;92972.44;;;3.03;74.78
21742;BME280;11033;47.490;11.116;2023-12-20T06:10:13;92985.59;;;3.10;74.38
21742;BME280;11033;47.490;11.116;2023-12-20T06:12:39;93008.13;;;3.15;74.34
21742;BME280;11033;47.490;11.116;2023-12-20T06:15:04;93003.56;;;3.12;74.16
21742;BME280;11033;47.490;11.116;2023-12-20T06:17:31;92993.13;;;3.15;74.91
21742;BME280;11033;47.490;11.116;2023-12-20T06:19:56;93019.03;;;3.20;74.62
21742;BME280;11033;47.490;11.116;2023-12-20T06:22:22;93012.28;;;3.23;73.29
21742;BME280;11033;47.490;11.116;2023-12-20T06:24:47;93016.09;;;3.25;74.14
21742;BME280;11033;47.490;11.116;2023-12-20T06:27:13;93009.63;;;3.19;75.09
21742;BME280;11033;47.490;11.116;2023-12-20T06:29:38;93029.50;;;3.20;75.40
21742;BME280;11033;47.490;11.116;2023-12-20T06:32:04;93029.38;;;3.10;75.08
21742;BME280;11033;47.490;11.116;2023-12-20T06:34:29;93022.72;;;3.16;75.17
21742;BME280;11033;47.490;11.116;2023-12-20T06:36:54;93030.19;;;3.14;75.08
21742;BME280;11033;47.490;11.116;2023-12-20T06:39:20;93031.78;;;3.22;74.55
21742;BME280;11033;47.490;11.116;2023-12-20T06:41:45;93044.53;;;3.27;74.71
21742;BME280;11033;47.490;11.116;2023-12-20T06:44:10;93050.50;;;3.24;74.29
21742;BME280;11033;47.490;11.116;2023-12-20T06:46:36;93064.03;;;3.26;74.84
21742;BME280;11033;47.490;11.116;2023-12-20T06:49:01;93068.94;;;3.31;73.97
21742;BME280;11033;47.490;11.116;2023-12-20T06:51:27;93072.28;;;3.28;74.57
21742;BME280;11033;47.490;11.116;2023-12-20T06:53:52;93076.78;;;3.31;75.29
21742;BME280;11033;47.490;11.116;2023-12-20T06:56:18;93085.06;;;3.33;73.74
21742;BME280;11033;47.490;11.116;2023-12-20T06:58:43;93089.59;;;3.36;73.70
21742;BME280;11033;47.490;11.116;2023-12-20T07:01:12;93092.22;;;3.36;74.61
21742;BME280;11033;47.490;11.116;2023-12-20T07:03:38;93107.56;;;3.37;74.65
21742;BME280;11033;47.490;11.116;2023-12-20T07:06:03;93109.84;;;3.39;74.14
21742;BME280;11033;47.490;11.116;2023-12-20T07:08:29;93110.25;;;3.41;73.89
21742;BME280;11033;47.490;11.116;2023-12-20T07:10:54;93124.47;;;3.40;75.37
21742;BME280;11033;47.490;11.116;2023-12-20T07:13:19;93127.13;;;3.44;74.82
21742;BME280;11033;47.490;11.116;2023-12-20T07:15:45;93129.03;;;3.47;74.68
21742;BME280;11033;47.490;11.116;2023-12-20T07:18:10;93128.69;;;3.48;74.36
21742;BME280;11033;47.490;11.116;2023-12-20T07:20:35;93126.47;;;3.50;75.30
21742;BME280;11033;47.490;11.116;2023-12-20T07:23:00;93133.97;;;3.52;75.29
21742;BME280;11033;47.490;11.116;2023-12-20T07:25:26;93134.38;;;3.54;75.83
21742;BME280;11033;47.490;11.116;2023-12-20T07:27:51;93137.66;;;3.47;76.85
21742;BME280;11033;47.490;11.116;2023-12-20T07:30:16;93128.00;;;3.55;75.83
21742;BME280;11033;47.490;11.116;2023-12-20T07:32:42;93115.28;;;3.57;75.50
21742;BME280;11033;47.490;11.116;2023-12-20T07:35:07;93113.00;;;3.52;76.66
21742;BME280;11033;47.490;11.116;2023-12-20T07:37:32;93111.53;;;3.54;78.03
21742;BME280;11033;47.490;11.116;2023-12-20T07:39:58;93125.81;;;3.60;77.56
21742;BME280;11033;47.490;11.116;2023-12-20T07:42:23;93129.91;;;3.58;76.63
21742;BME280;11033;47.490;11.116;2023-12-20T07:44:48;93119.84;;;3.60;76.49
21742;BME280;11033;47.490;11.116;2023-12-20T07:47:14;93120.25;;;3.65;77.50
21742;BME280;11033;47.490;11.116;2023-12-20T07:49:42;93119.88;;;3.63;78.08
21742;BME280;11033;47.490;11.116;2023-12-20T07:52:07;93122.00;;;3.54;78.31
21742;BME280;11033;47.490;11.116;2023-12-20T07:54:33;93127.63;;;3.56;78.50
21742;BME280;11033;47.490;11.116;2023-12-20T07:56:58;93132.31;;;3.70;77.07
21742;BME280;11033;47.490;11.116;2023-12-20T07:59:24;93131.56;;;3.73;77.89
21742;BME280;11033;47.490;11.116;2023-12-20T08:01:49;93130.41;;;3.67;78.67
21742;BME280;11033;47.490;11.116;2023-12-20T08:04:14;93139.03;;;3.67;79.55
21742;BME280;11033;47.490;11.116;2023-12-20T08:06:39;93137.22;;;3.75;78.37
21742;BME280;11033;47.490;11.116;2023-12-20T08:09:05;93139.06;;;3.71;79.78
21742;BME280;11033;47.490;11.116;2023-12-20T08:11:30;93142.47;;;3.75;79.60
21742;BME280;11033;47.490;11.116;2023-12-20T08:13:55;93143.63;;;3.77;77.74
21742;BME280;11033;47.490;11.116;2023-12-20T08:16:21;93156.06;;;3.84;77.64
21742;BME280;11033;47.490;11.116;2023-12-20T08:18:47;93154.94;;;3.85;78.33
21742;BME280;11033;47.490;11.116;2023-12-20T08:21:12;93143.63;;;3.77;80.21
21742;BME280;11033;47.490;11.116;2023-12-20T08:23:38;93158.72;;;3.87;78.86
21742;BME280;11033;47.490;11.116;2023-12-20T08:26:07;93161.19;;;3.40;80.04
21742;BME280;11033;47.490;11.116;2023-12-20T08:28:33;93160.13;;;3.45;80.29
21742;BME280;11033;47.490;11.116;2023-12-20T08:30:58;93163.09;;;3.76;78.54
21742;BME280;11033;47.490;11.116;2023-12-20T08:33:23;93171.06;;;3.87;77.51
21742;BME280;11033;47.490;11.116;2023-12-20T08:35:49;93181.56;;;3.87;77.96
21742;BME280;11033;47.490;11.116;2023-12-20T08:38:14;93171.06;;;3.87;78.82
21742;BME280;11033;47.490;11.116;2023-12-20T08:40:39;93168.13;;;3.92;78.48
21742;BME280;11033;47.490;11.116;2023-12-20T08:43:05;93176.31;;;3.87;80.04
21742;BME280;11033;47.490;11.116;2023-12-20T08:45:30;93182.41;;;3.95;78.87
21742;BME280;11033;47.490;11.116;2023-12-20T08:47:55;93182.41;;;3.95;78.49
21742;BME280;11033;47.490;11.116;2023-12-20T08:50:20;93182.09;;;4.00;77.84
21742;BME280;11033;47.490;11.116;2023-12-20T08:52:46;93183.56;;;3.97;78.80
21742;BME280;11033;47.490;11.116;2023-12-20T08:55:12;93177.19;;;3.98;79.26
21742;BME280;11033;47.490;11.116;2023-12-20T08:57:38;93175.34;;;4.02;78.81
21742;BME280;11033;47.490;11.116;2023-12-20T09:00:04;93185.47;;;4.00;79.00
21742;BME280;11033;47.490;11.116;2023-12-20T09:02:29;93183.25;;;4.06;79.14
21742;BME280;11033;47.490;11.116;2023-12-20T09:04:54;93189.97;;;4.00;79.10
21742;BME280;11033;47.490;11.116;2023-12-20T09:07:25;93189.69;;;4.08;78.44
21742;BME280;11033;47.490;11.116;2023-12-20T09:09:50;93184.88;;;4.17;76.63
21742;BME280;11033;47.490;11.116;2023-12-20T09:12:17;93174.75;;;4.16;78.36
21742;BME280;11033;47.490;11.116;2023-12-20T09:14:43;93181.53;;;4.20;78.27
21742;BME280;11033;47.490;11.116;2023-12-20T09:17:09;93193.09;;;4.12;77.98
21742;BME280;11033;47.490;11.116;2023-12-20T09:19:36;93187.47;;;4.14;78.15
21742;BME280;11033;47.490;11.116;2023-12-20T09:22:02;93176.25;;;4.17;78.67
21742;BME280;11033;47.490;11.116;2023-12-20T09:24:27;93169.97;;;4.25;78.71
21742;BME280;11033;47.490;11.116;2023-12-20T09:26:52;93182.00;;;4.29;78.21
21742;BME280;11033;47.490;11.116;2023-12-20T09:29:17;93180.97;;;4.37;76.21
21742;BME280;11033;47.490;11.116;2023-12-20T09:31:44;93180.91;;;4.30;77.49
21742;BME280;11033;47.490;11.116;2023-12-20T09:34:11;93186.94;;;4.34;77.99
21742;BME280;11033;47.490;11.116;2023-12-20T09:36:36;93184.69;;;4.36;78.52
21742;BME280;11033;47.490;11.116;2023-12-20T09:39:04;93177.25;;;4.42;78.22
21742;BME280;11033;47.490;11.116;2023-12-20T09:41:31;93178.41;;;4.48;78.06
21742;BME280;11033;47.490;11.116;2023-12-20T09:44:02;93176.56;;;4.49;76.90
21742;BME280;11033;47.490;11.116;2023-12-20T09:46:28;93170.22;;;4.53;76.30
21742;BME280;11033;47.490;11.116;2023-12-20T09:48:59;93158.56;;;4.54;76.87
21742;BME280;11033;47.490;11.116;2023-12-20T09:51:25;93168.72;;;4.56;78.31
21742;BME280;11033;47.490;11.116;2023-12-20T09:53:53;93166.06;;;4.52;77.81
21742;BME280;11033;47.490;11.116;2023-12-20T09:56:19;93171.38;;;4.59;77.12
21742;BME280;11033;47.490;11.116;2023-12-20T09:58:45;93159.06;;;4.70;77.21
21742;BME280;11033;47.490;11.116;2023-12-20T10:01:10;93155.75;;;4.80;75.94
21742;BME280;11033;47.490;11.116;2023-12-20T10:03:39;93156.19;;;4.86;76.44
21742;BME280;11033;47.490;11.116;2023-12-20T10:06:05;93156.59;;;4.92;77.26
21742;BME280;11033;47.490;11.116;2023-12-20T10:08:31;93156.22;;;4.90;75.92
21742;BME280;11033;47.490;11.116;2023-12-20T10:10:57;93134.84;;;4.95;76.23
21742;BME280;11033;47.490;11.116;2023-12-20T10:13:27;93130.78;;;5.08;75.99
21742;BME280;11033;47.490;11.116;2023-12-20T10:15:55;93125.84;;;5.03;75.72
21742;BME280;11033;47.490;11.116;2023-12-20T10:18:20;93127.41;;;5.11;76.15
21742;BME280;11033;47.490;11.116;2023-12-20T10:20:46;93112.09;;;5.23;76.27
21742;BME280;11033;47.490;11.116;2023-12-20T10:23:12;93115.88;;;5.36;75.15
21742;BME280;11033;47.490;11.116;2023-12-20T10:25:39;93103.91;;;5.46;74.92
21742;BME280;11033;47.490;11.116;2023-12-20T10:28:14;93096.03;;;5.53;74.57
21742;BME280;11033;47.490;11.116;2023-12-20T10:30:42;93098.72;;;5.67;75.21
21742;BME280;11033;47.490;11.116;2023-12-20T10:33:08;93081.41;;;5.70;75.66
21742;BME280;11033;47.490;11.116;2023-12-20T10:35:35;93096.50;;;5.83;75.83
21742;BME280;11033;47.490;11.116;2023-12-20T10:38:03;93088.66;;;5.98;74.67
21742;BME280;11033;47.490;11.116;2023-12-20T10:40:29;93093.56;;;6.27;75.04
21742;BME280;11033;47.490;11.116;2023-12-20T10:42:55;93078.53;;;6.24;73.90
21742;BME280;11033;47.490;11.116;2023-12-20T10:45:22;93092.44;;;6.28;74.55
21742;BME280;11033;47.490;11.116;2023-12-20T10:47:49;93093.16;;;6.04;72.39
21742;BME280;11033;47.490;11.116;2023-12-20T10:50:15;93085.66;;;6.38;73.71
21742;BME280;11033;47.490;11.116;2023-12-20T10:52:41;93084.53;;;6.46;72.79
21742;BME280;11033;47.490;11.116;2023-12-20T10:55:08;93085.66;;;6.66;72.29
21742;BME280;11033;47.490;11.116;2023-12-20T10:57:36;93084.91;;;6.73;71.67
21742;BME280;11033;47.490;11.116;2023-12-20T11:00:01;93065.66;;;6.79;71.19
21742;BME280;11033;47.490;11.116;2023-12-20T11:02:32;93063.03;;;6.76;71.28
21742;BME280;11033;47.490;11.116;2023-12-20T11:08:12;93057.00;;;6.93;70.71
21742;BME280;11033;47.490;11.116;2023-12-20T11:13:08;93041.44;;;7.20;71.63
21742;BME280;11033;47.490;11.116;2023-12-20T11:15:36;93042.63;;;7.01;70.42
21742;BME280;11033;47.490;11.116;2023-12-20T11:18:02;93063.03;;;6.97;70.62
21742;BME280;11033;47.490;11.116;2023-12-20T11:20:36;93054.69;;;7.06;70.35
21742;BME280;11033;47.490;11.116;2023-12-20T11:23:03;93047.84;;;7.26;69.99
21742;BME280;11033;47.490;11.116;2023-12-20T11:25:28;93028.47;;;7.54;69.83
21742;BME280;11033;47.490;11.116;2023-12-20T11:28:14;93031.84;;;7.58;69.96
21742;BME280;11033;47.490;11.116;2023-12-20T11:33:15;93045.00;;;7.65;69.39
21742;BME280;11033;47.490;11.116;2023-12-20T11:35:41;93036.63;;;7.81;68.27
21742;BME280;11033;47.490;11.116;2023-12-20T11:38:10;93037.25;;;7.99;68.74
21742;BME280;11033;47.490;11.116;2023-12-20T11:40:35;93036.44;;;8.09;68.89
21742;BME280;11033;47.490;11.116;2023-12-20T11:43:02;93036.47;;;8.05;67.72
21742;BME280;11033;47.490;11.116;2023-12-20T11:45:27;93034.06;;;8.21;68.29
21742;BME280;11033;47.490;11.116;2023-12-20T11:47:53;93036.69;;;8.29;68.25
21742;BME280;11033;47.490;11.116;2023-12-20T11:50:22;93042.72;;;8.29;68.38
21742;BME280;11033;47.490;11.116;2023-12-20T11:52:48;93048.50;;;8.13;67.13
21742;BME280;11033;47.490;11.116;2023-12-20T11:55:13;93041.06;;;7.94;67.51
21742;BME280;11033;47.490;11.116;2023-12-20T11:57:39;93043.00;;;7.87;68.16
21742;BME280;11033;47.490;11.116;2023-12-20T12:00:05;93035.75;;;7.98;67.97
21742;BME280;11033;47.490;11.116;2023-12-20T12:02:31;93028.63;;;7.95;67.13
21742;BME280;11033;47.490;11.116;2023-12-20T12:04:57;93020.69;;;7.95;68.13
21742;BME280;11033;47.490;11.116;2023-12-20T12:07:24;93033.88;;;7.98;68.46
21742;BME280;11033;47.490;11.116;2023-12-20T12:09:49;93035.03;;;7.94;67.04
21742;BME280;11033;47.490;11.116;2023-12-20T12:12:14;93034.59;;;8.06;67.88
21742;BME280;11033;47.490;11.116;2023-12-20T12:14:40;93034.66;;;7.92;66.78
21742;BME280;11033;47.490;11.116;2023-12-20T12:17:15;93030.44;;;8.05;67.83
21742;BME280;11033;47.490;11.116;2023-12-20T12:19:41;93028.91;;;8.07;67.18
21742;BME280;11033;47.490;11.116;2023-12-20T12:22:08;93020.94;;;8.11;66.27
21742;BME280;11033;47.490;11.116;2023-12-20T12:24:36;93016.38;;;8.15;67.22
21742;BME280;11033;47.490;11.116;2023-12-20T12:27:02;93014.31;;;7.89;66.73
21742;BME280;11033;47.490;11.116;2023-12-20T12:29:28;93008.66;;;7.90;66.48
21742;BME280;11033;47.490;11.116;2023-12-20T12:31:54;93005.69;;;7.81;65.72
21742;BME280;11033;47.490;11.116;2023-12-20T12:34:19;93019.22;;;7.90;66.07
21742;BME280;11033;47.490;11.116;2023-12-20T12:36:45;93016.50;;;8.01;65.86
21742;BME280;11033;47.490;11.116;2023-12-20T12:39:17;93019.47;;;8.03;66.27
21742;BME280;11033;47.490;11.116;2023-12-20T12:41:43;93028.91;;;8.04;65.47
21742;BME280;11033;47.490;11.116;2023-12-20T12:44:08;93025.25;;;7.91;64.42
21742;BME280;11033;47.490;11.116;2023-12-20T12:46:34;93022.56;;;7.98;64.77
21742;BME280;11033;47.490;11.116;2023-12-20T12:48:59;93024.78;;;8.03;65.45
21742;BME280;11033;47.490;11.116;2023-12-20T12:51:25;93014.03;;;7.76;65.51
21742;BME280;11033;47.490;11.116;2023-12-20T12:53:50;93018.09;;;7.84;65.68
21742;BME280;11033;47.490;11.116;2023-12-20T12:56:15;93014.28;;;7.92;66.08
21742;BME280;11033;47.490;11.116;2023-12-20T12:58:41;93016.66;;;7.72;64.98
21742;BME280;11033;47.490;11.116;2023-12-20T13:01:07;93012.13;;;7.76;65.57